sensor_id;sensor_type;location;lat;lon;timestamp;P1;durP1;ratioP1;P2;durP2;ratioP2
9767;SDS011;4923;52.520;13.494;2022-09-12T00:01:11;3.47;;;3.17;;
9767;SDS011;4923;52.520;13.494;2022-09-12T00:04:00;9.83;;;4.50;;
9767;SDS011;4923;52.520;13.494;2022-09-12T00:06:48;5.03;;;4.63;;
9767;SDS011;4923;52.520;13.494;2022-09-12T00:09:35;4.10;;;3.80;;
9767;SDS011;4923;52.520;13.494;2022-09-12T00:12:22;3.93;;;3.50;;
9767;SDS011;4923;52.520;13.494;2022-09-12T00:15:11;7.50;;;4.30;;
9767;SDS011;4923;52.520;13.494;2022-09-12T00:17:58;4.30;;;4.10;;
9767;SDS011;4923;52.520;13.494;2022-09-12T00:20:45;16.80;;;8.20;;
9767;SDS011;4923;52.520;13.494;2022-09-12T00:23:32;5.75;;;5.07;;
9767;SDS011;4923;52.520;13.494;2022-09-12T00:26:20;3.40;;;3.30;;
9767;SDS011;4923;52.520;13.494;2022-09-12T00:29:07;4.88;;;4.63;;
9767;SDS011;4923;52.520;13.494;2022-09-12T00:31:57;4.18;;;3.90;;
9767;SDS011;4923;52.520;13.494;2022-09-12T00:34:44;3.70;;;3.60;;
9767;SDS011;4923;52.520;13.494;2022-09-12T00:37:33;4.22;;;4.05;;
9767;SDS011;4923;52.520;13.494;2022-09-12T00:40:20;4.30;;;3.90;;
9767;SDS011;4923;52.520;13.494;2022-09-12T00:43:09;3.42;;;3.20;;
9767;SDS011;4923;52.520;13.494;2022-09-12T00:46:01;3.85;;;3.70;;
9767;SDS011;4923;52.520;13.494;2022-09-12T00:48:53;3.88;;;3.55;;
9767;SDS011;4923;52.520;13.494;2022-09-12T00:51:45;3.47;;;3.28;;
9767;SDS011;4923;52.520;13.494;2022-09-12T00:54:37;3.85;;;3.63;;
9767;SDS011;4923;52.520;13.494;2022-09-12T00:57:29;4.13;;;3.40;;
9767;SDS011;4923;52.520;13.494;2022-09-12T01:00:21;3.42;;;3.13;;
9767;SDS011;4923;52.520;13.494;2022-09-12T01:03:10;4.13;;;3.72;;
9767;SDS011;4923;52.520;13.494;2022-09-12T01:06:04;5.90;;;3.65;;
9767;SDS011;4923;52.520;13.494;2022-09-12T01:08:57;3.72;;;3.63;;
9767;SDS011;4923;52.520;13.494;2022-09-12T01:11:48;3.72;;;3.53;;
9767;SDS011;4923;52.520;13.494;2022-09-12T01:14:37;3.20;;;3.10;;
9767;SDS011;4923;52.520;13.494;2022-09-12T01:17:26;3.28;;;3.08;;
9767;SDS011;4923;52.520;13.494;2022-09-12T01:20:25;3.72;;;3.47;;
9767;SDS011;4923;52.520;13.494;2022-09-12T01:23:40;6.38;;;3.83;;
9767;SDS011;4923;52.520;13.494;2022-09-12T01:27:03;4.00;;;3.85;;
9767;SDS011;4923;52.520;13.494;2022-09-12T01:30:03;3.83;;;3.63;;
9767;SDS011;4923;52.520;13.494;2022-09-12T01:33:13;4.10;;;4.00;;
9767;SDS011;4923;52.520;13.494;2022-09-12T01:36:22;3.60;;;3.50;;
9767;SDS011;4923;52.520;13.494;2022-09-12T01:39:28;8.20;;;5.05;;
9767;SDS011;4923;52.520;13.494;2022-09-12T01:42:23;4.72;;;4.30;;
9767;SDS011;4923;52.520;13.494;2022-09-12T01:45:17;5.45;;;4.10;;
9767;SDS011;4923;52.520;13.494;2022-09-12T01:48:13;4.50;;;4.20;;
9767;SDS011;4923;52.520;13.494;2022-09-12T01:51:06;5.57;;;4.38;;
9767;SDS011;4923;52.520;13.494;2022-09-12T01:54:01;4.47;;;4.20;;
9767;SDS011;4923;52.520;13.494;2022-09-12T01:56:56;6.00;;;4.20;;
9767;SDS011;4923;52.520;13.494;2022-09-12T01:59:47;3.90;;;3.70;;
9767;SDS011;4923;52.520;13.494;2022-09-12T02:02:38;4.28;;;4.05;;
9767;SDS011;4923;52.520;13.494;2022-09-12T02:05:40;4.80;;;4.45;;
9767;SDS011;4923;52.520;13.494;2022-09-12T02:08:33;4.88;;;4.50;;
9767;SDS011;4923;52.520;13.494;2022-09-12T02:11:25;4.25;;;3.88;;
9767;SDS011;4923;52.520;13.494;2022-09-12T02:14:12;24.40;;;5.38;;
9767;SDS011;4923;52.520;13.494;2022-09-12T02:17:06;4.82;;;4.53;;
9767;SDS011;4923;52.520;13.494;2022-09-12T02:19:58;16.80;;;4.50;;
9767;SDS011;4923;52.520;13.494;2022-09-12T02:22:51;4.18;;;3.97;;
9767;SDS011;4923;52.520;13.494;2022-09-12T02:25:41;5.20;;;4.90;;
9767;SDS011;4923;52.520;13.494;2022-09-12T02:28:32;4.55;;;4.25;;
9767;SDS011;4923;52.520;13.494;2022-09-12T02:31:24;5.15;;;4.75;;
9767;SDS011;4923;52.520;13.494;2022-09-12T02:34:19;5.28;;;4.97;;
9767;SDS011;4923;52.520;13.494;2022-09-12T02:37:16;4.15;;;3.90;;
9767;SDS011;4923;52.520;13.494;2022-09-12T02:40:12;13.95;;;4.50;;
9767;SDS011;4923;52.520;13.494;2022-09-12T02:43:00;4.93;;;4.63;;
9767;SDS011;4923;52.520;13.494;2022-09-12T02:45:50;5.65;;;4.70;;
9767;SDS011;4923;52.520;13.494;2022-09-12T02:48:37;4.45;;;4.20;;
9767;SDS011;4923;52.520;13.494;2022-09-12T02:51:27;4.97;;;4.78;;
9767;SDS011;4923;52.520;13.494;2022-09-12T02:54:15;5.10;;;4.72;;
9767;SDS011;4923;52.520;13.494;2022-09-12T02:57:14;6.15;;;5.60;;
9767;SDS011;4923;52.520;13.494;2022-09-12T03:00:02;6.88;;;6.30;;
9767;SDS011;4923;52.520;13.494;2022-09-12T03:02:53;5.57;;;5.22;;
9767;SDS011;4923;52.520;13.494;2022-09-12T03:05:58;5.22;;;4.93;;
9767;SDS011;4923;52.520;13.494;2022-09-12T03:08:50;5.70;;;5.18;;
9767;SDS011;4923;52.520;13.494;2022-09-12T03:11:48;5.30;;;4.82;;
9767;SDS011;4923;52.520;13.494;2022-09-12T03:14:59;6.28;;;5.68;;
9767;SDS011;4923;52.520;13.494;2022-09-12T03:17:59;7.70;;;6.47;;
9767;SDS011;4923;52.520;13.494;2022-09-12T03:20:52;6.47;;;5.40;;
9767;SDS011;4923;52.520;13.494;2022-09-12T03:23:48;6.47;;;5.88;;
9767;SDS011;4923;52.520;13.494;2022-09-12T03:26:42;5.50;;;5.10;;
9767;SDS011;4923;52.520;13.494;2022-09-12T03:29:34;5.95;;;5.45;;
9767;SDS011;4923;52.520;13.494;2022-09-12T03:35:30;7.32;;;5.40;;
9767;SDS011;4923;52.520;13.494;2022-09-12T03:38:17;6.10;;;5.60;;
9767;SDS011;4923;52.520;13.494;2022-09-12T03:41:04;6.43;;;5.85;;
9767;SDS011;4923;52.520;13.494;2022-09-12T03:43:54;6.07;;;5.68;;
9767;SDS011;4923;52.520;13.494;2022-09-12T03:46:41;6.60;;;6.10;;
9767;SDS011;4923;52.520;13.494;2022-09-12T03:49:29;5.95;;;5.50;;
9767;SDS011;4923;52.520;13.494;2022-09-12T03:52:16;6.70;;;6.07;;
9767;SDS011;4923;52.520;13.494;2022-09-12T03:55:04;5.95;;;5.45;;
9767;SDS011;4923;52.520;13.494;2022-09-12T03:57:52;6.28;;;5.68;;
9767;SDS011;4923;52.520;13.494;2022-09-12T04:00:39;7.95;;;6.18;;
9767;SDS011;4923;52.520;13.494;2022-09-12T04:03:27;9.82;;;6.05;;
9767;SDS011;4923;52.520;13.494;2022-09-12T04:06:17;8.57;;;6.70;;
9767;SDS011;4923;52.520;13.494;2022-09-12T04:09:08;7.40;;;6.70;;
9767;SDS011;4923;52.520;13.494;2022-09-12T04:11:55;7.20;;;6.50;;
9767;SDS011;4923;52.520;13.494;2022-09-12T04:14:43;7.88;;;6.93;;
9767;SDS011;4923;52.520;13.494;2022-09-12T04:17:32;8.15;;;6.95;;
9767;SDS011;4923;52.520;13.494;2022-09-12T04:20:22;12.02;;;6.38;;
9767;SDS011;4923;52.520;13.494;2022-09-12T04:23:15;13.05;;;7.40;;
9767;SDS011;4923;52.520;13.494;2022-09-12T04:26:02;14.13;;;6.95;;
9767;SDS011;4923;52.520;13.494;2022-09-12T04:28:52;7.78;;;6.97;;
9767;SDS011;4923;52.520;13.494;2022-09-12T04:31:45;9.10;;;6.72;;
9767;SDS011;4923;52.520;13.494;2022-09-12T04:34:32;8.65;;;6.72;;
9767;SDS011;4923;52.520;13.494;2022-09-12T04:37:20;9.98;;;6.35;;
9767;SDS011;4923;52.520;13.494;2022-09-12T04:40:09;7.25;;;6.65;;
9767;SDS011;4923;52.520;13.494;2022-09-12T04:42:57;6.53;;;6.00;;
9767;SDS011;4923;52.520;13.494;2022-09-12T04:45:43;8.20;;;7.32;;
9767;SDS011;4923;52.520;13.494;2022-09-12T04:48:32;10.70;;;7.28;;
9767;SDS011;4923;52.520;13.494;2022-09-12T04:51:20;8.73;;;7.15;;
9767;SDS011;4923;52.520;13.494;2022-09-12T04:54:15;7.85;;;7.10;;
9767;SDS011;4923;52.520;13.494;2022-09-12T04:57:07;9.73;;;7.93;;
9767;SDS011;4923;52.520;13.494;2022-09-12T04:59:56;13.20;;;7.82;;
9767;SDS011;4923;52.520;13.494;2022-09-12T05:02:49;12.07;;;7.55;;
9767;SDS011;4923;52.520;13.494;2022-09-12T05:05:37;10.55;;;6.97;;
9767;SDS011;4923;52.520;13.494;2022-09-12T05:08:28;14.18;;;8.20;;
9767;SDS011;4923;52.520;13.494;2022-09-12T05:11:17;18.50;;;7.65;;
9767;SDS011;4923;52.520;13.494;2022-09-12T05:14:08;11.82;;;8.40;;
9767;SDS011;4923;52.520;13.494;2022-09-12T05:16:59;10.82;;;7.55;;
9767;SDS011;4923;52.520;13.494;2022-09-12T05:19:50;7.38;;;6.65;;
9767;SDS011;4923;52.520;13.494;2022-09-12T05:22:39;13.63;;;8.30;;
9767;SDS011;4923;52.520;13.494;2022-09-12T05:25:34;13.05;;;8.60;;
9767;SDS011;4923;52.520;13.494;2022-09-12T05:28:22;10.95;;;7.63;;
9767;SDS011;4923;52.520;13.494;2022-09-12T05:31:12;12.20;;;8.38;;
9767;SDS011;4923;52.520;13.494;2022-09-12T05:34:04;14.25;;;8.05;;
9767;SDS011;4923;52.520;13.494;2022-09-12T05:36:54;12.23;;;8.23;;
9767;SDS011;4923;52.520;13.494;2022-09-12T05:39:44;9.93;;;8.15;;
9767;SDS011;4923;52.520;13.494;2022-09-12T05:42:31;14.68;;;9.27;;
9767;SDS011;4923;52.520;13.494;2022-09-12T05:45:18;16.05;;;8.48;;
9767;SDS011;4923;52.520;13.494;2022-09-12T05:48:06;13.23;;;7.78;;
9767;SDS011;4923;52.520;13.494;2022-09-12T05:50:57;9.45;;;8.55;;
9767;SDS011;4923;52.520;13.494;2022-09-12T05:53:46;16.33;;;9.35;;
9767;SDS011;4923;52.520;13.494;2022-09-12T05:56:36;21.35;;;9.70;;
9767;SDS011;4923;52.520;13.494;2022-09-12T05:59:24;11.35;;;8.15;;
9767;SDS011;4923;52.520;13.494;2022-09-12T06:02:12;12.70;;;8.43;;
9767;SDS011;4923;52.520;13.494;2022-09-12T06:05:01;15.93;;;8.55;;
9767;SDS011;4923;52.520;13.494;2022-09-12T06:07:48;10.65;;;7.38;;
9767;SDS011;4923;52.520;13.494;2022-09-12T06:10:37;11.43;;;7.43;;
9767;SDS011;4923;52.520;13.494;2022-09-12T06:13:24;8.17;;;7.27;;
9767;SDS011;4923;52.520;13.494;2022-09-12T06:16:14;8.13;;;7.33;;
9767;SDS011;4923;52.520;13.494;2022-09-12T06:19:04;13.43;;;6.90;;
9767;SDS011;4923;52.520;13.494;2022-09-12T06:21:53;8.30;;;7.43;;
9767;SDS011;4923;52.520;13.494;2022-09-12T06:24:41;9.03;;;7.50;;
9767;SDS011;4923;52.520;13.494;2022-09-12T06:27:27;9.10;;;7.27;;
9767;SDS011;4923;52.520;13.494;2022-09-12T06:30:15;10.90;;;6.93;;
9767;SDS011;4923;52.520;13.494;2022-09-12T06:33:02;9.87;;;6.43;;
9767;SDS011;4923;52.520;13.494;2022-09-12T06:35:49;11.20;;;6.17;;
9767;SDS011;4923;52.520;13.494;2022-09-12T06:38:37;15.00;;;9.13;;
9767;SDS011;4923;52.520;13.494;2022-09-12T06:41:25;16.17;;;8.33;;
9767;SDS011;4923;52.520;13.494;2022-09-12T06:44:13;9.27;;;6.40;;
9767;SDS011;4923;52.520;13.494;2022-09-12T06:47:02;11.70;;;7.17;;
9767;SDS011;4923;52.520;13.494;2022-09-12T06:49:49;6.40;;;5.77;;
9767;SDS011;4923;52.520;13.494;2022-09-12T06:52:36;14.43;;;6.57;;
9767;SDS011;4923;52.520;13.494;2022-09-12T06:55:25;7.77;;;5.87;;
9767;SDS011;4923;52.520;13.494;2022-09-12T06:58:12;15.80;;;7.97;;
9767;SDS011;4923;52.520;13.494;2022-09-12T07:01:02;6.23;;;5.63;;
9767;SDS011;4923;52.520;13.494;2022-09-12T07:03:54;6.57;;;4.20;;
9767;SDS011;4923;52.520;13.494;2022-09-12T07:06:43;13.20;;;4.70;;
9767;SDS011;4923;52.520;13.494;2022-09-12T07:09:30;11.40;;;6.40;;
9767;SDS011;4923;52.520;13.494;2022-09-12T07:12:18;4.57;;;4.30;;
9767;SDS011;4923;52.520;13.494;2022-09-12T07:15:05;6.00;;;5.27;;
9767;SDS011;4923;52.520;13.494;2022-09-12T07:17:53;4.63;;;4.30;;
9767;SDS011;4923;52.520;13.494;2022-09-12T07:20:40;6.33;;;4.77;;
9767;SDS011;4923;52.520;13.494;2022-09-12T07:23:27;4.93;;;4.57;;
9767;SDS011;4923;52.520;13.494;2022-09-12T07:26:14;6.67;;;4.23;;
9767;SDS011;4923;52.520;13.494;2022-09-12T07:29:03;8.23;;;6.17;;
9767;SDS011;4923;52.520;13.494;2022-09-12T07:31:50;8.57;;;6.10;;
9767;SDS011;4923;52.520;13.494;2022-09-12T07:34:37;9.60;;;7.43;;
9767;SDS011;4923;52.520;13.494;2022-09-12T07:37:24;7.43;;;6.87;;
9767;SDS011;4923;52.520;13.494;2022-09-12T07:40:11;8.70;;;6.90;;
9767;SDS011;4923;52.520;13.494;2022-09-12T07:42:58;10.77;;;8.47;;
9767;SDS011;4923;52.520;13.494;2022-09-12T07:45:46;10.00;;;9.10;;
9767;SDS011;4923;52.520;13.494;2022-09-12T07:48:33;11.57;;;10.47;;
9767;SDS011;4923;52.520;13.494;2022-09-12T07:51:21;17.63;;;10.10;;
9767;SDS011;4923;52.520;13.494;2022-09-12T07:54:08;10.60;;;8.07;;
9767;SDS011;4923;52.520;13.494;2022-09-12T08:00:22;7.07;;;6.33;;
9767;SDS011;4923;52.520;13.494;2022-09-12T08:03:11;7.73;;;5.57;;
9767;SDS011;4923;52.520;13.494;2022-09-12T08:06:01;12.10;;;7.00;;
9767;SDS011;4923;52.520;13.494;2022-09-12T08:08:49;7.13;;;4.93;;
9767;SDS011;4923;52.520;13.494;2022-09-12T08:11:37;4.67;;;4.27;;
9767;SDS011;4923;52.520;13.494;2022-09-12T08:14:24;4.23;;;3.83;;
9767;SDS011;4923;52.520;13.494;2022-09-12T08:17:11;3.60;;;3.40;;
9767;SDS011;4923;52.520;13.494;2022-09-12T08:20:00;4.80;;;3.83;;
9767;SDS011;4923;52.520;13.494;2022-09-12T08:22:48;3.93;;;3.47;;
9767;SDS011;4923;52.520;13.494;2022-09-12T08:25:35;3.20;;;2.70;;
9767;SDS011;4923;52.520;13.494;2022-09-12T08:28:22;3.43;;;3.20;;
9767;SDS011;4923;52.520;13.494;2022-09-12T08:31:10;4.20;;;3.60;;
9767;SDS011;4923;52.520;13.494;2022-09-12T08:33:58;3.97;;;3.50;;
9767;SDS011;4923;52.520;13.494;2022-09-12T08:36:47;3.77;;;3.50;;
9767;SDS011;4923;52.520;13.494;2022-09-12T08:39:33;2.70;;;2.57;;
9767;SDS011;4923;52.520;13.494;2022-09-12T08:42:23;3.67;;;3.40;;
9767;SDS011;4923;52.520;13.494;2022-09-12T08:45:24;2.57;;;2.47;;
9767;SDS011;4923;52.520;13.494;2022-09-12T08:48:16;3.73;;;3.17;;
9767;SDS011;4923;52.520;13.494;2022-09-12T08:51:03;2.90;;;2.77;;
9767;SDS011;4923;52.520;13.494;2022-09-12T08:53:51;6.50;;;3.53;;
9767;SDS011;4923;52.520;13.494;2022-09-12T08:56:40;3.87;;;1.90;;
9767;SDS011;4923;52.520;13.494;2022-09-12T08:59:28;2.50;;;2.30;;
9767;SDS011;4923;52.520;13.494;2022-09-12T09:02:27;1.90;;;1.80;;
9767;SDS011;4923;52.520;13.494;2022-09-12T09:05:39;1.30;;;1.30;;
9767;SDS011;4923;52.520;13.494;2022-09-12T09:08:37;2.40;;;1.63;;
9767;SDS011;4923;52.520;13.494;2022-09-12T09:11:45;1.50;;;1.47;;
9767;SDS011;4923;52.520;13.494;2022-09-12T09:14:45;0.90;;;0.90;;
9767;SDS011;4923;52.520;13.494;2022-09-12T09:17:41;1.30;;;1.30;;
9767;SDS011;4923;52.520;13.494;2022-09-12T09:20:32;1.83;;;1.10;;
9767;SDS011;4923;52.520;13.494;2022-09-12T09:23:24;1.47;;;0.67;;
9767;SDS011;4923;52.520;13.494;2022-09-12T09:26:15;1.23;;;0.67;;
9767;SDS011;4923;52.520;13.494;2022-09-12T09:29:14;0.50;;;0.50;;
9767;SDS011;4923;52.520;13.494;2022-09-12T09:32:05;0.50;;;0.50;;
9767;SDS011;4923;52.520;13.494;2022-09-12T09:35:00;0.60;;;0.60;;
9767;SDS011;4923;52.520;13.494;2022-09-12T09:37:53;0.50;;;0.50;;
9767;SDS011;4923;52.520;13.494;2022-09-12T09:40:48;1.27;;;0.70;;
9767;SDS011;4923;52.520;13.494;2022-09-12T09:43:43;1.03;;;0.77;;
9767;SDS011;4923;52.520;13.494;2022-09-12T09:46:33;0.50;;;0.50;;
9767;SDS011;4923;52.520;13.494;2022-09-12T09:49:20;0.83;;;0.80;;
9767;SDS011;4923;52.520;13.494;2022-09-12T09:52:09;0.77;;;0.77;;
9767;SDS011;4923;52.520;13.494;2022-09-12T09:55:02;0.60;;;0.60;;
9767;SDS011;4923;52.520;13.494;2022-09-12T09:57:59;0.63;;;0.63;;
9767;SDS011;4923;52.520;13.494;2022-09-12T10:00:46;0.40;;;0.40;;
9767;SDS011;4923;52.520;13.494;2022-09-12T10:03:36;0.47;;;0.47;;
9767;SDS011;4923;52.520;13.494;2022-09-12T10:06:28;0.50;;;0.50;;
9767;SDS011;4923;52.520;13.494;2022-09-12T10:09:20;3.70;;;0.60;;
9767;SDS011;4923;52.520;13.494;2022-09-12T10:12:19;0.83;;;0.47;;
9767;SDS011;4923;52.520;13.494;2022-09-12T10:15:15;2.23;;;0.50;;
9767;SDS011;4923;52.520;13.494;2022-09-12T10:18:06;0.93;;;0.70;;
9767;SDS011;4923;52.520;13.494;2022-09-12T10:20:55;3.70;;;0.60;;
9767;SDS011;4923;52.520;13.494;2022-09-12T10:23:43;0.63;;;0.63;;
9767;SDS011;4923;52.520;13.494;2022-09-12T10:26:32;2.30;;;1.00;;
9767;SDS011;4923;52.520;13.494;2022-09-12T10:29:26;0.63;;;0.60;;
9767;SDS011;4923;52.520;13.494;2022-09-12T10:32:21;1.10;;;0.60;;
9767;SDS011;4923;52.520;13.494;2022-09-12T10:35:15;2.10;;;0.70;;
9767;SDS011;4923;52.520;13.494;2022-09-12T10:38:10;0.50;;;0.50;;
9767;SDS011;4923;52.520;13.494;2022-09-12T10:41:03;1.07;;;0.70;;
9767;SDS011;4923;52.520;13.494;2022-09-12T10:43:52;0.87;;;0.50;;
9767;SDS011;4923;52.520;13.494;2022-09-12T10:46:52;0.60;;;0.60;;
9767;SDS011;4923;52.520;13.494;2022-09-12T10:49:39;2.53;;;0.60;;
9767;SDS011;4923;52.520;13.494;2022-09-12T10:52:26;1.40;;;0.67;;
9767;SDS011;4923;52.520;13.494;2022-09-12T10:55:15;0.50;;;0.50;;
9767;SDS011;4923;52.520;13.494;2022-09-12T10:58:08;1.60;;;0.70;;
9767;SDS011;4923;52.520;13.494;2022-09-12T11:01:07;0.97;;;0.70;;
9767;SDS011;4923;52.520;13.494;2022-09-12T11:04:11;2.13;;;0.70;;
9767;SDS011;4923;52.520;13.494;2022-09-12T11:07:13;0.90;;;0.90;;
9767;SDS011;4923;52.520;13.494;2022-09-12T11:10:19;1.10;;;0.50;;
9767;SDS011;4923;52.520;13.494;2022-09-12T11:13:15;3.80;;;0.60;;
9767;SDS011;4923;52.520;13.494;2022-09-12T11:16:12;0.40;;;0.40;;
9767;SDS011;4923;52.520;13.494;2022-09-12T11:19:12;4.43;;;0.93;;
9767;SDS011;4923;52.520;13.494;2022-09-12T11:22:14;0.80;;;0.80;;
9767;SDS011;4923;52.520;13.494;2022-09-12T11:25:20;0.63;;;0.63;;
9767;SDS011;4923;52.520;13.494;2022-09-12T11:28:20;1.37;;;0.50;;
9767;SDS011;4923;52.520;13.494;2022-09-12T11:31:22;0.40;;;0.40;;
9767;SDS011;4923;52.520;13.494;2022-09-12T11:34:27;0.80;;;0.60;;
9767;SDS011;4923;52.520;13.494;2022-09-12T11:37:29;1.30;;;0.60;;
9767;SDS011;4923;52.520;13.494;2022-09-12T11:40:28;0.47;;;0.47;;
9767;SDS011;4923;52.520;13.494;2022-09-12T11:43:24;0.53;;;0.53;;
9767;SDS011;4923;52.520;13.494;2022-09-12T11:46:22;1.70;;;0.70;;
9767;SDS011;4923;52.520;13.494;2022-09-12T11:49:19;0.80;;;0.80;;
9767;SDS011;4923;52.520;13.494;2022-09-12T11:52:12;5.20;;;0.60;;
9767;SDS011;4923;52.520;13.494;2022-09-12T11:55:04;1.00;;;0.90;;
9767;SDS011;4923;52.520;13.494;2022-09-12T11:57:58;2.07;;;0.80;;
9767;SDS011;4923;52.520;13.494;2022-09-12T12:00:46;1.60;;;0.80;;
9767;SDS011;4923;52.520;13.494;2022-09-12T12:03:36;4.60;;;0.70;;
9767;SDS011;4923;52.520;13.494;2022-09-12T12:06:27;1.90;;;0.70;;
9767;SDS011;4923;52.520;13.494;2022-09-12T12:09:17;1.27;;;0.50;;
9767;SDS011;4923;52.520;13.494;2022-09-12T12:12:06;0.83;;;0.80;;
9767;SDS011;4923;52.520;13.494;2022-09-12T12:14:58;4.80;;;0.90;;
9767;SDS011;4923;52.520;13.494;2022-09-12T12:17:58;0.63;;;0.63;;
9767;SDS011;4923;52.520;13.494;2022-09-12T12:20:46;0.90;;;0.90;;
9767;SDS011;4923;52.520;13.494;2022-09-12T12:23:34;3.00;;;0.87;;
9767;SDS011;4923;52.520;13.494;2022-09-12T12:29:38;0.70;;;0.70;;
9767;SDS011;4923;52.520;13.494;2022-09-12T12:32:28;2.87;;;0.80;;
9767;SDS011;4923;52.520;13.494;2022-09-12T12:38:26;3.30;;;0.70;;
9767;SDS011;4923;52.520;13.494;2022-09-12T12:44:47;2.73;;;0.90;;
9767;SDS011;4923;52.520;13.494;2022-09-12T12:47:39;0.60;;;0.60;;
9767;SDS011;4923;52.520;13.494;2022-09-12T12:50:29;0.80;;;0.80;;
9767;SDS011;4923;52.520;13.494;2022-09-12T12:53:18;2.20;;;0.97;;
9767;SDS011;4923;52.520;13.494;2022-09-12T12:56:20;1.00;;;0.60;;
9767;SDS011;4923;52.520;13.494;2022-09-12T12:59:16;0.70;;;0.70;;
9767;SDS011;4923;52.520;13.494;2022-09-12T13:02:13;0.63;;;0.63;;
9767;SDS011;4923;52.520;13.494;2022-09-12T13:05:15;0.70;;;0.70;;
9767;SDS011;4923;52.520;13.494;2022-09-12T13:08:09;0.60;;;0.60;;
9767;SDS011;4923;52.520;13.494;2022-09-12T13:11:13;0.60;;;0.60;;
9767;SDS011;4923;52.520;13.494;2022-09-12T13:14:02;2.63;;;0.60;;
9767;SDS011;4923;52.520;13.494;2022-09-12T13:16:52;0.80;;;0.50;;
9767;SDS011;4923;52.520;13.494;2022-09-12T13:19:41;0.60;;;0.60;;
9767;SDS011;4923;52.520;13.494;2022-09-12T13:22:38;1.07;;;0.67;;
9767;SDS011;4923;52.520;13.494;2022-09-12T13:25:28;1.80;;;0.60;;
9767;SDS011;4923;52.520;13.494;2022-09-12T13:28:16;1.63;;;0.60;;
9767;SDS011;4923;52.520;13.494;2022-09-12T13:31:07;0.67;;;0.50;;
9767;SDS011;4923;52.520;13.494;2022-09-12T13:34:00;3.20;;;0.70;;
9767;SDS011;4923;52.520;13.494;2022-09-12T13:40:13;0.40;;;0.40;;
9767;SDS011;4923;52.520;13.494;2022-09-12T13:43:12;2.67;;;0.60;;
9767;SDS011;4923;52.520;13.494;2022-09-12T13:46:00;1.37;;;0.60;;
9767;SDS011;4923;52.520;13.494;2022-09-12T13:48:47;3.70;;;0.60;;
9767;SDS011;4923;52.520;13.494;2022-09-12T13:51:34;0.43;;;0.43;;
9767;SDS011;4923;52.520;13.494;2022-09-12T13:54:21;0.53;;;0.50;;
9767;SDS011;4923;52.520;13.494;2022-09-12T13:57:18;0.43;;;0.43;;
9767;SDS011;4923;52.520;13.494;2022-09-12T14:00:17;1.13;;;0.63;;
9767;SDS011;4923;52.520;13.494;2022-09-12T14:03:13;5.33;;;0.70;;
9767;SDS011;4923;52.520;13.494;2022-09-12T14:06:33;5.23;;;0.50;;
9767;SDS011;4923;52.520;13.494;2022-09-12T14:09:28;0.50;;;0.50;;
9767;SDS011;4923;52.520;13.494;2022-09-12T14:12:22;5.33;;;0.57;;
9767;SDS011;4923;52.520;13.494;2022-09-12T14:15:15;2.77;;;0.63;;
9767;SDS011;4923;52.520;13.494;2022-09-12T14:18:04;0.70;;;0.70;;
9767;SDS011;4923;52.520;13.494;2022-09-12T14:20:53;0.80;;;0.40;;
9767;SDS011;4923;52.520;13.494;2022-09-12T14:23:44;0.53;;;0.53;;
9767;SDS011;4923;52.520;13.494;2022-09-12T14:26:33;0.40;;;0.40;;
9767;SDS011;4923;52.520;13.494;2022-09-12T14:29:25;0.47;;;0.47;;
9767;SDS011;4923;52.520;13.494;2022-09-12T14:32:19;0.63;;;0.63;;
9767;SDS011;4923;52.520;13.494;2022-09-12T14:35:18;0.50;;;0.50;;
9767;SDS011;4923;52.520;13.494;2022-09-12T14:38:06;0.60;;;0.60;;
9767;SDS011;4923;52.520;13.494;2022-09-12T14:40:59;1.97;;;0.90;;
9767;SDS011;4923;52.520;13.494;2022-09-12T14:43:50;0.60;;;0.60;;
9767;SDS011;4923;52.520;13.494;2022-09-12T14:46:41;1.13;;;0.50;;
9767;SDS011;4923;52.520;13.494;2022-09-12T14:49:30;0.57;;;0.57;;
9767;SDS011;4923;52.520;13.494;2022-09-12T14:52:23;0.40;;;0.40;;
9767;SDS011;4923;52.520;13.494;2022-09-12T14:55:19;1.40;;;0.70;;
9767;SDS011;4923;52.520;13.494;2022-09-12T14:58:15;1.20;;;0.57;;
9767;SDS011;4923;52.520;13.494;2022-09-12T15:01:23;1.43;;;0.63;;
9767;SDS011;4923;52.520;13.494;2022-09-12T15:04:15;0.93;;;0.50;;
9767;SDS011;4923;52.520;13.494;2022-09-12T15:07:28;0.90;;;0.60;;
9767;SDS011;4923;52.520;13.494;2022-09-12T15:10:19;1.23;;;0.60;;
9767;SDS011;4923;52.520;13.494;2022-09-12T15:13:19;0.67;;;0.67;;
9767;SDS011;4923;52.520;13.494;2022-09-12T15:16:08;0.57;;;0.50;;
9767;SDS011;4923;52.520;13.494;2022-09-12T15:18:57;0.60;;;0.60;;
9767;SDS011;4923;52.520;13.494;2022-09-12T15:21:45;0.60;;;0.60;;
9767;SDS011;4923;52.520;13.494;2022-09-12T15:24:32;0.77;;;0.50;;
9767;SDS011;4923;52.520;13.494;2022-09-12T15:27:19;2.60;;;0.60;;
9767;SDS011;4923;52.520;13.494;2022-09-12T15:30:06;0.50;;;0.50;;
9767;SDS011;4923;52.520;13.494;2022-09-12T15:32:54;0.60;;;0.60;;
9767;SDS011;4923;52.520;13.494;2022-09-12T15:35:44;2.10;;;0.60;;
9767;SDS011;4923;52.520;13.494;2022-09-12T15:38:32;0.83;;;0.60;;
9767;SDS011;4923;52.520;13.494;2022-09-12T15:41:20;3.03;;;0.80;;
9767;SDS011;4923;52.520;13.494;2022-09-12T15:44:10;0.77;;;0.50;;
9767;SDS011;4923;52.520;13.494;2022-09-12T15:46:58;7.67;;;1.30;;
9767;SDS011;4923;52.520;13.494;2022-09-12T15:49:45;8.20;;;1.20;;
9767;SDS011;4923;52.520;13.494;2022-09-12T15:52:32;8.83;;;1.20;;
9767;SDS011;4923;52.520;13.494;2022-09-12T15:55:21;3.50;;;0.60;;
9767;SDS011;4923;52.520;13.494;2022-09-12T15:58:10;7.83;;;1.03;;
9767;SDS011;4923;52.520;13.494;2022-09-12T16:00:57;0.60;;;0.60;;
9767;SDS011;4923;52.520;13.494;2022-09-12T16:03:44;1.57;;;0.73;;
9767;SDS011;4923;52.520;13.494;2022-09-12T16:06:32;2.07;;;0.70;;
9767;SDS011;4923;52.520;13.494;2022-09-12T16:09:19;0.87;;;0.77;;
9767;SDS011;4923;52.520;13.494;2022-09-12T16:12:09;0.93;;;0.70;;
9767;SDS011;4923;52.520;13.494;2022-09-12T16:14:56;2.10;;;0.80;;
9767;SDS011;4923;52.520;13.494;2022-09-12T16:17:43;6.00;;;0.80;;
9767;SDS011;4923;52.520;13.494;2022-09-12T16:20:30;3.57;;;0.77;;
9767;SDS011;4923;52.520;13.494;2022-09-12T16:23:17;0.87;;;0.50;;
9767;SDS011;4923;52.520;13.494;2022-09-12T16:26:05;0.60;;;0.60;;
9767;SDS011;4923;52.520;13.494;2022-09-12T16:28:56;0.57;;;0.57;;
9767;SDS011;4923;52.520;13.494;2022-09-12T16:31:44;2.77;;;0.80;;
9767;SDS011;4923;52.520;13.494;2022-09-12T16:34:31;1.70;;;0.87;;
9767;SDS011;4923;52.520;13.494;2022-09-12T16:37:25;0.50;;;0.50;;
9767;SDS011;4923;52.520;13.494;2022-09-12T16:40:12;0.50;;;0.50;;
9767;SDS011;4923;52.520;13.494;2022-09-12T16:43:02;2.20;;;0.60;;
9767;SDS011;4923;52.520;13.494;2022-09-12T16:45:52;2.00;;;0.73;;
9767;SDS011;4923;52.520;13.494;2022-09-12T16:48:47;1.27;;;0.97;;
9767;SDS011;4923;52.520;13.494;2022-09-12T16:51:35;2.20;;;0.93;;
9767;SDS011;4923;52.520;13.494;2022-09-12T16:54:22;4.27;;;1.00;;
9767;SDS011;4923;52.520;13.494;2022-09-12T16:57:09;1.17;;;0.80;;
9767;SDS011;4923;52.520;13.494;2022-09-12T16:59:56;0.87;;;0.87;;
9767;SDS011;4923;52.520;13.494;2022-09-12T17:02:45;0.80;;;0.80;;
9767;SDS011;4923;52.520;13.494;2022-09-12T17:05:32;3.80;;;0.70;;
9767;SDS011;4923;52.520;13.494;2022-09-12T17:08:20;1.80;;;0.80;;
9767;SDS011;4923;52.520;13.494;2022-09-12T17:11:14;0.80;;;0.80;;
9767;SDS011;4923;52.520;13.494;2022-09-12T17:14:03;1.73;;;0.70;;
9767;SDS011;4923;52.520;13.494;2022-09-12T17:16:51;1.17;;;1.07;;
9767;SDS011;4923;52.520;13.494;2022-09-12T17:19:39;0.83;;;0.70;;
9767;SDS011;4923;52.520;13.494;2022-09-12T17:22:27;1.37;;;1.27;;
9767;SDS011;4923;52.520;13.494;2022-09-12T17:25:14;1.40;;;1.30;;
9767;SDS011;4923;52.520;13.494;2022-09-12T17:28:01;0.93;;;0.80;;
9767;SDS011;4923;52.520;13.494;2022-09-12T17:30:53;3.60;;;0.90;;
9767;SDS011;4923;52.520;13.494;2022-09-12T17:33:41;0.70;;;0.70;;
9767;SDS011;4923;52.520;13.494;2022-09-12T17:36:30;1.03;;;1.00;;
9767;SDS011;4923;52.520;13.494;2022-09-12T17:39:17;2.97;;;1.13;;
9767;SDS011;4923;52.520;13.494;2022-09-12T17:42:04;1.00;;;1.00;;
9767;SDS011;4923;52.520;13.494;2022-09-12T17:44:52;1.40;;;1.30;;
9767;SDS011;4923;52.520;13.494;2022-09-12T17:47:40;5.93;;;1.10;;